CheckWX is a tool to help pilots better visualize weather data.  It is not intended as a substitute for an official pre-flight weather briefing.

18:06:19 UTC

ESST METAR
Torsby Airport
Sweden
Current

16 mins ago

ESST 171750Z AUTO 17007KT 9999 OVC014/// 02/M00 Q1018
Observed
Feb-17 @ 17:50 UTC
Wind
  • 170° at 7 KTS
Visibility
10,000+ meters
Flight Rules
MVFR
Cloud Levels
  • Overcast at 1,400' AGL
Temperature
C / 36°F
Dewpoint
C / 32°F
Humidity
87%
Altimeter
30.06" Hg
Pressure
1017.92 hPa
Previous

46 mins ago

ESST 171720Z AUTO 15005KT 9999 OVC015/// 02/M01 Q1018
Observed
Feb-17 @ 17:20 UTC
Wind
  • 150° at 5 KTS
Visibility
10,000+ meters
Flight Rules
MVFR
Cloud Levels
  • Overcast at 1,500' AGL
Temperature
C / 36°F
Dewpoint
-1°C / 30°F
Humidity
81%
Altimeter
30.06" Hg
Pressure
1017.92 hPa
Previous

1 hour ago

ESST 171650Z AUTO 13004KT 9999 OVC016/// 02/M02 Q1018
Observed
Feb-17 @ 16:50 UTC
Wind
  • 130° at 4 KTS
Visibility
10,000+ meters
Flight Rules
MVFR
Cloud Levels
  • Overcast at 1,600' AGL
Temperature
C / 36°F
Dewpoint
-2°C / 28°F
Humidity
75%
Altimeter
30.06" Hg
Pressure
1017.92 hPa